createdAt,value
2022-12-18T00:00:10.657Z,100216.88
2022-12-18T00:02:39.403Z,100218.00
2022-12-18T00:05:10.859Z,100213.72
2022-12-18T00:07:39.854Z,100226.28
2022-12-18T00:10:09.611Z,100229.19
2022-12-18T00:12:38.215Z,100230.13
2022-12-18T00:15:07.755Z,100231.16
2022-12-18T00:17:36.394Z,100213.72
2022-12-18T00:20:05.600Z,100223.81
2022-12-18T00:22:35.548Z,100225.84
2022-12-18T00:25:04.799Z,100233.63
2022-12-18T00:27:33.365Z,100238.97
2022-12-18T00:30:02.061Z,100235.34
2022-12-18T00:32:30.741Z,100236.50
2022-12-18T00:34:59.345Z,100230.44
2022-12-18T00:37:27.923Z,100229.50
2022-12-18T00:39:57.964Z,100235.53
2022-12-18T00:42:44.291Z,100237.97
2022-12-18T00:45:13.346Z,100232.44
2022-12-18T00:47:42.458Z,100244.56
2022-12-18T00:50:11.731Z,100249.50
2022-12-18T00:52:41.591Z,100255.25
2022-12-18T00:55:11.826Z,100240.13
2022-12-18T00:57:40.595Z,100245.59
2022-12-18T01:00:11.086Z,100244.22
2022-12-18T01:02:39.999Z,100241.00
2022-12-18T01:05:09.488Z,100246.78
2022-12-18T01:07:38.125Z,100243.41
2022-12-18T01:10:07.880Z,100243.56
2022-12-18T01:12:37.877Z,100248.63
2022-12-18T01:15:08.105Z,100242.09
2022-12-18T01:17:37.536Z,100241.22
2022-12-18T01:20:07.527Z,100243.69
2022-12-18T01:22:36.113Z,100239.34
2022-12-18T01:25:06.301Z,100249.72
2022-12-18T01:27:36.750Z,100245.13
2022-12-18T01:30:06.741Z,100245.13
2022-12-18T01:32:35.323Z,100248.31
2022-12-18T01:35:04.044Z,100261.09
2022-12-18T01:37:32.741Z,100261.22
2022-12-18T01:40:01.368Z,100250.94
2022-12-18T01:42:30.030Z,100250.78
2022-12-18T01:45:06.491Z,100252.19
2022-12-18T01:47:38.746Z,100255.75
2022-12-18T01:50:11.066Z,100260.84
2022-12-18T01:52:40.608Z,100270.78
2022-12-18T01:55:10.698Z,100268.09
2022-12-18T01:57:40.040Z,100260.97
2022-12-18T02:00:12.536Z,100262.34
2022-12-18T02:02:41.694Z,100255.88
2022-12-18T02:05:11.318Z,100248.13
2022-12-18T02:07:45.911Z,100255.13
2022-12-18T02:10:18.495Z,100250.88
2022-12-18T02:12:50.932Z,100248.69
2022-12-18T02:15:28.553Z,100240.19
2022-12-18T02:18:00.091Z,100250.75
2022-12-18T02:20:34.311Z,100248.00
2022-12-18T02:23:09.427Z,100258.16
2022-12-18T02:25:53.979Z,100256.22
2022-12-18T02:28:24.970Z,100254.09
2022-12-18T02:30:55.786Z,100256.75
2022-12-18T02:33:24.920Z,100258.69
2022-12-18T02:35:54.560Z,100261.03
2022-12-18T02:38:23.235Z,100270.31
2022-12-18T02:40:53.831Z,100270.88
2022-12-18T02:43:22.800Z,100272.53
2022-12-18T02:45:54.514Z,100280.22
2022-12-18T02:48:30.279Z,100277.81
2022-12-18T02:51:05.138Z,100285.63
2022-12-18T02:53:39.318Z,100286.63
2022-12-18T02:56:13.070Z,100290.88
2022-12-18T02:58:47.471Z,100286.88
2022-12-18T03:01:19.589Z,100289.00
2022-12-18T03:03:51.067Z,100288.69
2022-12-18T03:06:24.931Z,100274.28
2022-12-18T03:08:56.508Z,100274.56
2022-12-18T03:11:43.683Z,100278.25
2022-12-18T03:14:13.334Z,100274.78
2022-12-18T03:16:42.388Z,100275.16
2022-12-18T03:19:13.920Z,100274.13
2022-12-18T03:21:44.759Z,100280.47
2022-12-18T03:24:13.736Z,100280.81
2022-12-18T03:26:47.068Z,100281.75
2022-12-18T03:29:19.685Z,100298.47
2022-12-18T03:31:51.575Z,100310.75
2022-12-18T03:34:25.142Z,100295.16
2022-12-18T03:36:54.065Z,100300.97
2022-12-18T03:39:22.719Z,100306.66
2022-12-18T03:41:54.906Z,100303.38
2022-12-18T03:44:30.220Z,100301.94
2022-12-18T03:47:04.154Z,100283.88
2022-12-18T03:49:37.355Z,100287.41
2022-12-18T03:52:08.428Z,100285.16
2022-12-18T03:54:37.814Z,100294.34
2022-12-18T03:57:11.949Z,100292.59
2022-12-18T03:59:41.391Z,100297.94
2022-12-18T04:02:10.315Z,100299.06
2022-12-18T04:04:40.607Z,100302.50
2022-12-18T04:07:09.607Z,100303.53
2022-12-18T04:09:38.916Z,100297.75
2022-12-18T04:12:09.098Z,100294.22
2022-12-18T04:14:37.725Z,100290.84
2022-12-18T04:17:06.334Z,100292.16
2022-12-18T04:19:34.928Z,100287.66
2022-12-18T04:22:03.556Z,100289.25
2022-12-18T04:24:32.210Z,100294.59
2022-12-18T04:27:00.763Z,100285.72
2022-12-18T04:29:30.747Z,100286.72
2022-12-18T04:31:59.363Z,100285.72
2022-12-18T04:34:28.444Z,100295.16
2022-12-18T04:36:57.014Z,100293.53
2022-12-18T04:39:26.202Z,100315.84
2022-12-18T04:41:55.241Z,100312.97
2022-12-18T04:44:23.840Z,100318.25
2022-12-18T04:46:53.870Z,100323.97
2022-12-18T04:49:23.097Z,100318.28
2022-12-18T04:51:51.724Z,100316.78
2022-12-18T04:54:21.784Z,100319.22
2022-12-18T04:56:50.334Z,100307.63
2022-12-18T04:59:18.916Z,100300.94
2022-12-18T05:01:47.825Z,100296.84
2022-12-18T05:04:17.848Z,100296.91
2022-12-18T05:06:46.674Z,100283.59
2022-12-18T05:09:15.868Z,100283.94
2022-12-18T05:11:45.093Z,100295.69
2022-12-18T05:14:14.943Z,100294.63
2022-12-18T05:16:43.587Z,100302.34
2022-12-18T05:19:12.736Z,100304.16
2022-12-18T05:21:43.182Z,100309.06
2022-12-18T05:24:12.538Z,100305.03
2022-12-18T05:26:41.295Z,100317.63
2022-12-18T05:29:13.138Z,100310.03
2022-12-18T05:31:42.686Z,100313.94
2022-12-18T05:34:12.111Z,100320.47
2022-12-18T05:36:43.073Z,100317.25
2022-12-18T05:39:13.126Z,100318.38
2022-12-18T05:41:41.775Z,100317.31
2022-12-18T05:44:11.510Z,100324.84
2022-12-18T05:46:40.146Z,100316.38
2022-12-18T05:49:10.163Z,100314.19
2022-12-18T05:51:39.063Z,100321.78
2022-12-18T05:54:09.274Z,100321.72
2022-12-18T05:56:37.881Z,100308.69
2022-12-18T05:59:06.471Z,100318.44
2022-12-18T06:01:35.230Z,100318.00
2022-12-18T06:04:04.034Z,100318.56
2022-12-18T06:06:34.109Z,100316.66
2022-12-18T06:09:09.009Z,100312.91
2022-12-18T06:11:39.196Z,100306.06
2022-12-18T06:14:08.205Z,100315.38
2022-12-18T06:16:36.826Z,100325.25
2022-12-18T06:19:07.455Z,100326.16
2022-12-18T06:21:36.152Z,100331.22
2022-12-18T06:24:05.220Z,100329.72
2022-12-18T06:26:33.839Z,100318.88
2022-12-18T06:29:03.841Z,100318.00
2022-12-18T06:31:32.623Z,100313.81
2022-12-18T06:34:01.299Z,100323.78
2022-12-18T06:36:30.241Z,100323.69
2022-12-18T06:38:59.091Z,100337.06
2022-12-18T06:41:27.748Z,100339.69
2022-12-18T06:43:59.692Z,100343.03
2022-12-18T06:46:30.127Z,100336.09
2022-12-18T06:48:58.774Z,100338.75
2022-12-18T06:51:27.458Z,100340.59
2022-12-18T06:53:56.022Z,100342.47
2022-12-18T06:56:24.638Z,100336.34
2022-12-18T06:58:53.314Z,100334.78
2022-12-18T07:01:21.965Z,100332.25
2022-12-18T07:03:55.743Z,100333.69
2022-12-18T07:06:26.602Z,100351.59
2022-12-18T07:08:56.005Z,100351.34
2022-12-18T07:11:25.257Z,100355.63
2022-12-18T07:13:54.444Z,100357.56
2022-12-18T07:16:25.666Z,100362.72
2022-12-18T07:18:56.642Z,100369.44
2022-12-18T07:21:26.089Z,100369.34
2022-12-18T07:23:54.817Z,100373.84
2022-12-18T07:26:24.214Z,100382.81
2022-12-18T07:28:56.936Z,100375.28
2022-12-18T07:31:26.550Z,100388.59
2022-12-18T07:33:56.831Z,100382.50
2022-12-18T07:36:25.653Z,100386.25
2022-12-18T07:38:54.468Z,100381.88
2022-12-18T07:41:23.143Z,100380.72
2022-12-18T07:43:51.776Z,100383.31
2022-12-18T07:46:20.918Z,100383.03
2022-12-18T07:48:50.443Z,100386.75
2022-12-18T07:51:20.704Z,100388.75
2022-12-18T07:53:52.307Z,100394.88
2022-12-18T07:56:27.723Z,100394.63
2022-12-18T07:58:58.127Z,100373.75
2022-12-18T08:01:27.011Z,100396.41
2022-12-18T08:03:55.890Z,100404.03
2022-12-18T08:06:25.826Z,100397.41
2022-12-18T08:08:54.980Z,100393.03
2022-12-18T08:11:24.585Z,100398.53
2022-12-18T08:13:53.614Z,100404.13
2022-12-18T08:16:22.958Z,100401.94
2022-12-18T08:18:53.289Z,100402.47
2022-12-18T08:21:25.065Z,100388.31
2022-12-18T08:23:56.568Z,100391.31
2022-12-18T08:26:26.508Z,100401.34
2022-12-18T08:28:55.757Z,100399.59
2022-12-18T08:31:24.957Z,100396.25
2022-12-18T08:33:54.937Z,100399.06
2022-12-18T08:36:24.807Z,100391.22
2022-12-18T08:38:55.759Z,100390.16
2022-12-18T08:41:24.363Z,100388.56
2022-12-18T08:44:10.368Z,100399.50
2022-12-18T08:46:41.178Z,100399.31
2022-12-18T08:49:10.836Z,100389.19
2022-12-18T08:51:39.569Z,100398.25
2022-12-18T08:54:09.683Z,100402.88
2022-12-18T08:56:38.314Z,100396.13
2022-12-18T08:59:07.498Z,100400.69
2022-12-18T09:01:36.317Z,100392.09
2022-12-18T09:04:05.369Z,100396.16
2022-12-18T09:06:36.295Z,100385.88
2022-12-18T09:09:06.487Z,100386.00
2022-12-18T09:11:36.463Z,100374.84
2022-12-18T09:14:05.412Z,100372.09
2022-12-18T09:16:35.868Z,100375.13
2022-12-18T09:19:05.677Z,100372.25
2022-12-18T09:21:41.207Z,100372.09
2022-12-18T09:24:14.356Z,100376.66
2022-12-18T09:26:47.264Z,100366.19
2022-12-18T09:29:16.403Z,100366.63
2022-12-18T09:31:48.348Z,100368.78
2022-12-18T09:34:17.520Z,100365.66
2022-12-18T09:36:46.158Z,100363.59
2022-12-18T09:39:16.125Z,100356.16
2022-12-18T09:41:51.830Z,100355.94
2022-12-18T09:44:27.426Z,100361.44
2022-12-18T09:47:04.430Z,100358.44
2022-12-18T09:49:36.864Z,100359.72
2022-12-18T09:52:11.133Z,100364.72
2022-12-18T09:54:41.666Z,100339.94
2022-12-18T09:57:16.059Z,100344.91
2022-12-18T09:59:46.965Z,100337.97
2022-12-18T10:02:22.237Z,100334.41
2022-12-18T10:05:03.848Z,100331.47
2022-12-18T10:07:43.941Z,100334.47
2022-12-18T10:10:23.893Z,100331.09
2022-12-18T10:13:04.551Z,100329.22
2022-12-18T10:15:38.635Z,100328.84
2022-12-18T10:18:21.679Z,100330.78
2022-12-18T10:20:52.177Z,100323.69
2022-12-18T10:23:24.419Z,100335.69
2022-12-18T10:26:05.882Z,100335.13
2022-12-18T10:28:38.715Z,100335.00
2022-12-18T10:31:07.918Z,100341.25
2022-12-18T10:33:36.765Z,100341.75
2022-12-18T10:36:07.254Z,100332.81
2022-12-18T10:38:36.078Z,100322.94
2022-12-18T10:41:06.614Z,100322.22
2022-12-18T10:43:38.389Z,100330.47
2022-12-18T10:46:25.242Z,100336.31
2022-12-18T10:49:22.223Z,100342.16
2022-12-18T10:52:08.262Z,100335.81
2022-12-18T10:54:37.403Z,100336.03
2022-12-18T10:57:33.935Z,100325.19
2022-12-18T11:00:23.728Z,100331.28
2022-12-18T11:02:52.861Z,100321.91
2022-12-18T11:05:29.867Z,100331.63
2022-12-18T11:07:59.789Z,100331.06
2022-12-18T11:10:32.280Z,100329.06
2022-12-18T11:13:12.678Z,100320.09
2022-12-18T11:15:43.376Z,100310.44
2022-12-18T11:18:19.107Z,100307.94
2022-12-18T11:20:58.198Z,100306.84
2022-12-18T11:23:27.791Z,100301.97
2022-12-18T11:25:58.913Z,100290.84
2022-12-18T11:28:31.142Z,100286.59
2022-12-18T11:31:19.193Z,100280.44
2022-12-18T11:36:52.566Z,100262.44
2022-12-18T11:39:24.892Z,100271.22
2022-12-18T11:42:12.352Z,100273.28
2022-12-18T11:44:45.356Z,100268.59
2022-12-18T11:47:24.171Z,100261.09
2022-12-18T11:49:53.394Z,100260.28
2022-12-18T11:52:23.727Z,100255.25
2022-12-18T11:54:53.740Z,100249.72
2022-12-18T11:57:35.004Z,100247.38
2022-12-18T12:00:09.578Z,100242.41
2022-12-18T12:02:59.911Z,100250.66
2022-12-18T12:05:38.747Z,100247.44
2022-12-18T12:08:15.300Z,100236.38
2022-12-18T12:10:51.536Z,100239.41
2022-12-18T12:13:32.195Z,100230.09
2022-12-18T12:16:08.634Z,100226.00
2022-12-18T12:18:49.178Z,100220.44
2022-12-18T12:21:22.572Z,100221.00
2022-12-18T12:23:56.120Z,100223.94
2022-12-18T12:26:29.611Z,100217.38
2022-12-18T12:29:04.720Z,100217.91
2022-12-18T12:31:49.554Z,100212.91
2022-12-18T12:34:22.086Z,100219.38
2022-12-18T12:37:02.474Z,100209.81
2022-12-18T12:39:33.485Z,100213.88
2022-12-18T12:42:20.670Z,100210.13
2022-12-18T12:44:56.277Z,100209.22
2022-12-18T12:47:28.115Z,100215.31
2022-12-18T12:49:58.765Z,100214.22
2022-12-18T12:52:33.179Z,100202.06
2022-12-18T12:55:02.542Z,100201.06
2022-12-18T12:57:37.099Z,100207.75
2022-12-18T13:00:11.592Z,100211.13
2022-12-18T13:02:44.800Z,100217.94
2022-12-18T13:05:20.007Z,100223.88
2022-12-18T13:07:53.409Z,100223.31
2022-12-18T13:10:28.686Z,100227.31
2022-12-18T13:12:57.920Z,100226.50
2022-12-18T13:15:31.512Z,100222.75
2022-12-18T13:18:07.343Z,100227.06
2022-12-18T13:20:38.808Z,100224.72
2022-12-18T13:23:28.945Z,100224.34
2022-12-18T13:25:58.695Z,100224.19
2022-12-18T13:29:00.181Z,100234.94
2022-12-18T13:32:10.782Z,100225.78
2022-12-18T13:34:39.668Z,100213.94
2022-12-18T13:37:47.245Z,100209.25
2022-12-18T13:40:56.107Z,100221.97
2022-12-18T13:43:28.591Z,100211.22
2022-12-18T13:46:06.626Z,100219.56
2022-12-18T13:48:36.831Z,100203.88
2022-12-18T13:51:06.787Z,100203.88
2022-12-18T13:53:40.834Z,100206.19
2022-12-18T13:56:10.063Z,100200.66
2022-12-18T13:58:39.117Z,100206.75
2022-12-18T14:01:23.807Z,100203.13
2022-12-18T14:03:52.703Z,100201.91
2022-12-18T14:06:22.541Z,100205.13
2022-12-18T14:08:53.439Z,100209.03
2022-12-18T14:11:25.367Z,100209.03
2022-12-18T14:13:55.459Z,100210.84
2022-12-18T14:16:24.403Z,100209.22
2022-12-18T14:18:57.573Z,100211.69
2022-12-18T14:21:33.439Z,100214.56
2022-12-18T14:24:08.718Z,100219.16
2022-12-18T14:26:37.345Z,100215.88
2022-12-18T14:29:21.580Z,100209.00
2022-12-18T14:32:17.316Z,100219.56
2022-12-18T14:34:48.115Z,100202.19
2022-12-18T14:37:18.293Z,100220.47
2022-12-18T14:39:59.570Z,100223.59
2022-12-18T14:42:29.115Z,100215.00
2022-12-18T14:45:41.533Z,100221.78
2022-12-18T14:48:16.500Z,100220.75
2022-12-18T14:51:00.762Z,100215.41
2022-12-18T14:53:39.209Z,100223.19
2022-12-18T14:56:19.229Z,100215.25
2022-12-18T14:58:49.746Z,100222.38
2022-12-18T15:01:23.833Z,100221.56
2022-12-18T15:03:53.321Z,100218.38
2022-12-18T15:06:29.127Z,100223.69
2022-12-18T15:08:58.104Z,100220.50
2022-12-18T15:11:35.697Z,100229.19
2022-12-18T15:14:40.067Z,100222.44
2022-12-18T15:17:17.784Z,100226.63
2022-12-18T15:19:47.502Z,100215.84
2022-12-18T15:22:25.274Z,100212.03
2022-12-18T15:24:54.084Z,100218.25
2022-12-18T15:27:27.516Z,100217.97
2022-12-18T15:30:18.078Z,100204.91
2022-12-18T15:32:46.920Z,100213.41
2022-12-18T15:35:17.815Z,100202.81
2022-12-18T15:37:46.710Z,100197.88
2022-12-18T15:40:16.100Z,100202.28
2022-12-18T15:43:05.835Z,100213.06
2022-12-18T15:45:35.046Z,100207.50
2022-12-18T15:48:21.690Z,100210.31
2022-12-18T15:50:59.419Z,100209.69
2022-12-18T15:53:31.754Z,100211.69
2022-12-18T15:56:39.764Z,100201.28
2022-12-18T16:02:17.905Z,100208.03
2022-12-18T16:04:47.412Z,100209.03
2022-12-18T16:07:18.859Z,100207.50
2022-12-18T16:09:51.628Z,100212.59
2022-12-18T16:12:23.269Z,100214.34
2022-12-18T16:14:53.277Z,100212.88
2022-12-18T16:17:22.445Z,100215.16
2022-12-18T16:19:51.287Z,100219.56
2022-12-18T16:22:23.272Z,100216.19
2022-12-18T16:24:52.910Z,100220.47
2022-12-18T16:27:22.409Z,100213.06
2022-12-18T16:29:52.726Z,100207.41
2022-12-18T16:32:23.346Z,100203.84
2022-12-18T16:34:52.307Z,100204.84
2022-12-18T16:37:20.910Z,100207.31
2022-12-18T16:39:49.630Z,100198.25
2022-12-18T16:42:20.178Z,100206.41
2022-12-18T16:44:51.278Z,100211.63
2022-12-18T16:47:21.192Z,100200.91
2022-12-18T16:49:53.202Z,100215.53
2022-12-18T16:52:22.315Z,100207.88
2022-12-18T16:54:50.935Z,100206.03
2022-12-18T16:57:21.529Z,100208.59
2022-12-18T16:59:54.163Z,100213.06
2022-12-18T17:02:25.666Z,100206.78
2022-12-18T17:04:56.780Z,100209.50
2022-12-18T17:07:26.194Z,100198.09
2022-12-18T17:09:55.195Z,100196.97
2022-12-18T17:12:24.289Z,100199.63
2022-12-18T17:14:52.894Z,100198.34
2022-12-18T17:17:23.084Z,100194.97
2022-12-18T17:19:53.877Z,100193.41
2022-12-18T17:22:24.093Z,100193.06
2022-12-18T17:24:52.722Z,100186.50
2022-12-18T17:27:21.337Z,100190.59
2022-12-18T17:29:49.991Z,100185.66
2022-12-18T17:32:25.686Z,100185.75
2022-12-18T17:34:55.679Z,100178.72
2022-12-18T17:37:29.979Z,100176.97
2022-12-18T17:39:58.693Z,100184.03
2022-12-18T17:42:27.438Z,100179.44
2022-12-18T17:45:00.152Z,100182.84
2022-12-18T17:47:30.039Z,100189.97
2022-12-18T17:50:00.116Z,100181.19
2022-12-18T17:52:28.969Z,100184.75
2022-12-18T17:54:57.676Z,100187.03
2022-12-18T17:57:26.328Z,100188.69
2022-12-18T17:59:55.005Z,100187.88
2022-12-18T18:02:24.308Z,100188.69
2022-12-18T18:04:53.465Z,100188.69
2022-12-18T18:07:31.629Z,100188.69
2022-12-18T18:10:00.360Z,100187.03
2022-12-18T18:12:51.038Z,100187.59
2022-12-18T18:15:19.784Z,100176.69
2022-12-18T18:17:48.383Z,100175.69
2022-12-18T18:20:22.257Z,100181.38
2022-12-18T18:22:52.906Z,100182.84
2022-12-18T18:25:21.648Z,100172.22
2022-12-18T18:27:50.744Z,100175.50
2022-12-18T18:30:19.717Z,100175.59
2022-12-18T18:32:48.775Z,100174.59
2022-12-18T18:35:45.063Z,100174.50
2022-12-18T18:38:08.457Z,100165.19
2022-12-18T18:40:37.194Z,100169.47
2022-12-18T18:43:05.844Z,100168.38
2022-12-18T18:45:35.353Z,100169.56
2022-12-18T18:48:04.015Z,100168.47
2022-12-18T18:50:32.621Z,100155.03
2022-12-18T18:53:01.207Z,100165.13
2022-12-18T18:55:34.157Z,100155.59
2022-12-18T18:58:02.769Z,100164.38
2022-12-18T19:01:05.860Z,100169.09
2022-12-18T19:03:34.684Z,100170.94
2022-12-18T19:06:03.283Z,100169.19
2022-12-18T19:08:34.232Z,100155.59
2022-12-18T19:11:06.034Z,100167.28
2022-12-18T19:13:34.104Z,100162.06
2022-12-18T19:16:05.467Z,100168.09
2022-12-18T19:18:34.532Z,100169.75
2022-12-18T19:21:05.180Z,100162.69
2022-12-18T19:23:34.641Z,100169.09
2022-12-18T19:28:55.371Z,100158.97
2022-12-18T19:31:27.047Z,100168.00
2022-12-18T19:33:58.265Z,100156.66
2022-12-18T19:36:28.160Z,100147.72
2022-12-18T19:38:58.454Z,100149.47
2022-12-18T19:41:31.125Z,100158.25
2022-12-18T19:44:01.609Z,100146.16
2022-12-18T19:46:38.296Z,100148.63
2022-12-18T19:49:11.168Z,100145.16
2022-12-18T19:51:40.968Z,100144.44
2022-12-18T19:54:13.351Z,100143.50
2022-12-18T19:56:46.717Z,100131.66
2022-12-18T19:59:16.918Z,100124.50
2022-12-18T20:01:45.665Z,100124.88
2022-12-18T20:04:14.383Z,100123.03
2022-12-18T20:06:53.405Z,100121.06
2022-12-18T20:09:29.195Z,100121.25
2022-12-18T20:11:59.850Z,100120.16
2022-12-18T20:14:28.601Z,100120.19
2022-12-18T20:16:57.728Z,100112.22
2022-12-18T20:19:29.636Z,100109.84
2022-12-18T20:21:58.893Z,100104.72
2022-12-18T20:24:27.880Z,100105.91
2022-12-18T20:26:56.555Z,100101.69
2022-12-18T20:29:26.713Z,100090.81
2022-12-18T20:31:55.287Z,100083.88
2022-12-18T20:34:28.123Z,100083.88
2022-12-18T20:36:57.079Z,100074.66
2022-12-18T20:39:27.482Z,100072.38
2022-12-18T20:41:57.117Z,100062.19
2022-12-18T20:44:27.184Z,100067.88
2022-12-18T20:46:57.360Z,100061.50
2022-12-18T20:49:27.600Z,100055.31
2022-12-18T20:51:58.262Z,100053.84
2022-12-18T20:54:28.051Z,100079.97
2022-12-18T20:56:57.262Z,100067.72
2022-12-18T20:59:27.367Z,100074.97
2022-12-18T21:01:56.309Z,100069.75
2022-12-18T21:04:25.386Z,100076.44
2022-12-18T21:06:55.716Z,100068.06
2022-12-18T21:09:37.184Z,100067.97
2022-12-18T21:12:27.504Z,100059.69
2022-12-18T21:14:59.417Z,100044.34
2022-12-18T21:17:28.600Z,100037.38
2022-12-18T21:19:58.426Z,100072.38
2022-12-18T21:22:27.411Z,100085.19
2022-12-18T21:24:55.999Z,100084.25
2022-12-18T21:27:24.660Z,100090.19
2022-12-18T21:29:53.447Z,100078.22
2022-12-18T21:32:24.664Z,100075.19
2022-12-18T21:34:55.736Z,100077.94
2022-12-18T21:37:24.356Z,100091.47
2022-12-18T21:39:53.024Z,100098.13
2022-12-18T21:42:39.466Z,100089.44
2022-12-18T21:45:09.024Z,100079.53
2022-12-18T21:47:39.026Z,100079.22
2022-12-18T21:50:08.107Z,100087.31
2022-12-18T21:52:36.754Z,100091.44
2022-12-18T21:55:09.331Z,100085.22
2022-12-18T21:57:38.888Z,100070.44
2022-12-18T22:00:12.499Z,100061.31
2022-12-18T22:03:17.992Z,100061.47
2022-12-18T22:05:38.629Z,100059.63
2022-12-18T22:08:15.547Z,100048.31
2022-12-18T22:10:46.345Z,100053.03
2022-12-18T22:13:19.445Z,100061.63
2022-12-18T22:15:48.139Z,100060.31
2022-12-18T22:18:18.073Z,100064.69
2022-12-18T22:20:46.710Z,100058.56
2022-12-18T22:23:15.352Z,100052.44
2022-12-18T22:25:51.796Z,100048.03
2022-12-18T22:28:38.053Z,100042.56
2022-12-18T22:31:06.810Z,100050.88
2022-12-18T22:33:36.772Z,100046.56
2022-12-18T22:36:06.638Z,100040.75
2022-12-18T22:38:35.311Z,100044.84
2022-12-18T22:41:03.931Z,100044.31
2022-12-18T22:43:33.394Z,100028.75
2022-12-18T22:46:04.618Z,100027.75
2022-12-18T22:48:33.276Z,100031.50
2022-12-18T22:51:03.480Z,100034.22
2022-12-18T22:53:32.155Z,100033.13
2022-12-18T22:56:03.923Z,100025.28
2022-12-18T22:58:32.517Z,100029.31
2022-12-18T23:01:01.133Z,100043.97
2022-12-18T23:03:29.893Z,100040.78
2022-12-18T23:06:05.353Z,100044.69
2022-12-18T23:08:34.019Z,100049.91
2022-12-18T23:11:03.206Z,100041.34
2022-12-18T23:13:31.844Z,100048.81
2022-12-18T23:16:00.775Z,100063.78
2022-12-18T23:18:29.443Z,100068.88
2022-12-18T23:20:58.083Z,100061.69
2022-12-18T23:23:29.657Z,100061.50
2022-12-18T23:26:02.342Z,100052.63
2022-12-18T23:28:32.702Z,100046.97
2022-12-18T23:31:06.704Z,100045.13
2022-12-18T23:33:35.394Z,100052.31
2022-12-18T23:36:05.158Z,100051.78
2022-12-18T23:38:36.008Z,100049.56
2022-12-18T23:41:08.045Z,100051.44
2022-12-18T23:43:36.794Z,100041.78
2022-12-18T23:46:11.296Z,100046.28
2022-12-18T23:48:40.396Z,100044.06
2022-12-18T23:51:10.151Z,100047.53
2022-12-18T23:53:40.185Z,100045.72
2022-12-18T23:56:10.162Z,100041.59
2022-12-18T23:58:39.519Z,100036.63
